sensor_id;sensor_type;location;lat;lon;timestamp;temperature;humidity
14585;DHT22;7379;51.506;11.876;2023-12-22T00:02:04;6.50;76.30
14585;DHT22;7379;51.506;11.876;2023-12-22T00:04:31;6.40;76.30
14585;DHT22;7379;51.506;11.876;2023-12-22T00:06:57;6.50;76.40
14585;DHT22;7379;51.506;11.876;2023-12-22T00:09:24;6.40;76.30
14585;DHT22;7379;51.506;11.876;2023-12-22T00:11:50;6.40;76.30
14585;DHT22;7379;51.506;11.876;2023-12-22T00:14:16;6.40;76.30
14585;DHT22;7379;51.506;11.876;2023-12-22T00:16:43;6.40;76.50
14585;DHT22;7379;51.506;11.876;2023-12-22T00:19:11;6.40;76.50
14585;DHT22;7379;51.506;11.876;2023-12-22T00:21:38;6.40;76.60
14585;DHT22;7379;51.506;11.876;2023-12-22T00:24:05;6.50;76.40
14585;DHT22;7379;51.506;11.876;2023-12-22T00:26:32;6.50;76.00
14585;DHT22;7379;51.506;11.876;2023-12-22T00:28:59;6.50;75.90
14585;DHT22;7379;51.506;11.876;2023-12-22T00:31:25;6.50;75.70
14585;DHT22;7379;51.506;11.876;2023-12-22T00:33:52;6.40;75.60
14585;DHT22;7379;51.506;11.876;2023-12-22T00:36:20;6.40;75.50
14585;DHT22;7379;51.506;11.876;2023-12-22T00:38:49;6.50;75.50
14585;DHT22;7379;51.506;11.876;2023-12-22T00:41:16;6.40;75.10
14585;DHT22;7379;51.506;11.876;2023-12-22T00:43:43;6.40;75.20
14585;DHT22;7379;51.506;11.876;2023-12-22T00:46:10;6.40;75.10
14585;DHT22;7379;51.506;11.876;2023-12-22T00:48:36;6.40;75.00
14585;DHT22;7379;51.506;11.876;2023-12-22T00:51:05;6.40;75.10
14585;DHT22;7379;51.506;11.876;2023-12-22T00:53:33;6.40;74.90
14585;DHT22;7379;51.506;11.876;2023-12-22T00:56:00;6.40;75.00
14585;DHT22;7379;51.506;11.876;2023-12-22T00:58:27;6.40;75.10
14585;DHT22;7379;51.506;11.876;2023-12-22T01:00:53;6.40;74.60
14585;DHT22;7379;51.506;11.876;2023-12-22T01:03:20;6.40;74.80
14585;DHT22;7379;51.506;11.876;2023-12-22T01:05:47;6.40;75.10
14585;DHT22;7379;51.506;11.876;2023-12-22T01:08:13;6.40;75.30
14585;DHT22;7379;51.506;11.876;2023-12-22T01:10:41;6.30;75.40
14585;DHT22;7379;51.506;11.876;2023-12-22T01:13:08;6.30;75.60
14585;DHT22;7379;51.506;11.876;2023-12-22T01:15:34;6.30;75.50
14585;DHT22;7379;51.506;11.876;2023-12-22T01:18:01;6.30;75.40
14585;DHT22;7379;51.506;11.876;2023-12-22T01:20:27;6.40;75.30
14585;DHT22;7379;51.506;11.876;2023-12-22T01:22:54;6.30;75.20
14585;DHT22;7379;51.506;11.876;2023-12-22T01:25:21;6.30;75.30
14585;DHT22;7379;51.506;11.876;2023-12-22T01:27:49;6.30;75.20
14585;DHT22;7379;51.506;11.876;2023-12-22T01:30:17;6.30;75.20
14585;DHT22;7379;51.506;11.876;2023-12-22T01:32:44;6.30;75.30
14585;DHT22;7379;51.506;11.876;2023-12-22T01:35:12;6.30;75.30
14585;DHT22;7379;51.506;11.876;2023-12-22T01:37:39;6.30;75.30
14585;DHT22;7379;51.506;11.876;2023-12-22T01:40:07;6.30;75.30
14585;DHT22;7379;51.506;11.876;2023-12-22T01:42:34;6.30;75.40
14585;DHT22;7379;51.506;11.876;2023-12-22T01:45:02;6.30;75.40
14585;DHT22;7379;51.506;11.876;2023-12-22T01:47:29;6.30;75.40
14585;DHT22;7379;51.506;11.876;2023-12-22T01:49:56;6.20;75.30
14585;DHT22;7379;51.506;11.876;2023-12-22T01:52:23;6.20;75.20
14585;DHT22;7379;51.506;11.876;2023-12-22T01:54:51;6.30;75.20
14585;DHT22;7379;51.506;11.876;2023-12-22T01:57:18;6.30;74.90
14585;DHT22;7379;51.506;11.876;2023-12-22T01:59:46;6.30;74.90
14585;DHT22;7379;51.506;11.876;2023-12-22T02:02:16;6.30;75.00
14585;DHT22;7379;51.506;11.876;2023-12-22T02:04:43;6.20;74.80
14585;DHT22;7379;51.506;11.876;2023-12-22T02:07:11;6.20;74.60
14585;DHT22;7379;51.506;11.876;2023-12-22T02:09:38;6.30;74.60
14585;DHT22;7379;51.506;11.876;2023-12-22T02:12:05;6.20;74.50
14585;DHT22;7379;51.506;11.876;2023-12-22T02:14:31;6.20;74.60
14585;DHT22;7379;51.506;11.876;2023-12-22T02:17:06;6.20;74.60
14585;DHT22;7379;51.506;11.876;2023-12-22T02:19:41;6.20;74.70
14585;DHT22;7379;51.506;11.876;2023-12-22T02:22:09;6.20;74.80
14585;DHT22;7379;51.506;11.876;2023-12-22T02:24:38;6.20;75.70
14585;DHT22;7379;51.506;11.876;2023-12-22T02:27:09;6.20;75.00
14585;DHT22;7379;51.506;11.876;2023-12-22T02:29:43;6.10;74.80
14585;DHT22;7379;51.506;11.876;2023-12-22T02:32:21;6.20;75.00
14585;DHT22;7379;51.506;11.876;2023-12-22T02:34:50;6.10;74.80
14585;DHT22;7379;51.506;11.876;2023-12-22T02:37:20;6.10;74.80
14585;DHT22;7379;51.506;11.876;2023-12-22T02:39:49;6.10;74.90
14585;DHT22;7379;51.506;11.876;2023-12-22T02:42:17;6.10;74.90
14585;DHT22;7379;51.506;11.876;2023-12-22T02:44:45;6.10;75.00
14585;DHT22;7379;51.506;11.876;2023-12-22T02:47:12;6.10;75.00
14585;DHT22;7379;51.506;11.876;2023-12-22T02:49:38;6.10;75.00
14585;DHT22;7379;51.506;11.876;2023-12-22T02:52:05;6.10;75.10
14585;DHT22;7379;51.506;11.876;2023-12-22T02:54:32;6.00;75.10
14585;DHT22;7379;51.506;11.876;2023-12-22T02:57:00;6.00;75.20
14585;DHT22;7379;51.506;11.876;2023-12-22T02:59:27;6.00;75.40
14585;DHT22;7379;51.506;11.876;2023-12-22T03:01:54;6.00;75.50
14585;DHT22;7379;51.506;11.876;2023-12-22T03:04:20;6.00;76.40
14585;DHT22;7379;51.506;11.876;2023-12-22T03:06:47;6.00;75.70
14585;DHT22;7379;51.506;11.876;2023-12-22T03:09:14;6.00;75.80
14585;DHT22;7379;51.506;11.876;2023-12-22T03:11:40;6.00;75.80
14585;DHT22;7379;51.506;11.876;2023-12-22T03:14:08;6.00;75.90
14585;DHT22;7379;51.506;11.876;2023-12-22T03:16:35;6.00;76.00
14585;DHT22;7379;51.506;11.876;2023-12-22T03:19:02;6.00;76.00
14585;DHT22;7379;51.506;11.876;2023-12-22T03:21:29;6.00;76.10
14585;DHT22;7379;51.506;11.876;2023-12-22T03:23:56;6.00;76.20
14585;DHT22;7379;51.506;11.876;2023-12-22T03:26:23;6.00;76.20
14585;DHT22;7379;51.506;11.876;2023-12-22T03:28:49;6.00;76.30
14585;DHT22;7379;51.506;11.876;2023-12-22T03:31:17;5.90;76.20
14585;DHT22;7379;51.506;11.876;2023-12-22T03:33:44;6.00;76.40
14585;DHT22;7379;51.506;11.876;2023-12-22T03:36:11;6.00;76.30
14585;DHT22;7379;51.506;11.876;2023-12-22T03:38:38;6.00;77.10
14585;DHT22;7379;51.506;11.876;2023-12-22T03:41:04;5.90;76.20
14585;DHT22;7379;51.506;11.876;2023-12-22T03:43:31;6.00;76.40
14585;DHT22;7379;51.506;11.876;2023-12-22T03:45:58;6.00;77.20
14585;DHT22;7379;51.506;11.876;2023-12-22T03:48:26;5.90;76.40
14585;DHT22;7379;51.506;11.876;2023-12-22T03:50:53;5.90;76.40
14585;DHT22;7379;51.506;11.876;2023-12-22T03:53:19;6.00;76.50
14585;DHT22;7379;51.506;11.876;2023-12-22T03:55:46;5.90;76.50
14585;DHT22;7379;51.506;11.876;2023-12-22T03:58:13;5.90;76.50
14585;DHT22;7379;51.506;11.876;2023-12-22T04:00:40;6.00;76.60
14585;DHT22;7379;51.506;11.876;2023-12-22T04:03:06;6.00;76.60
14585;DHT22;7379;51.506;11.876;2023-12-22T04:05:34;6.00;76.60
14585;DHT22;7379;51.506;11.876;2023-12-22T04:08:01;6.00;76.50
14585;DHT22;7379;51.506;11.876;2023-12-22T04:10:28;6.00;75.80
14585;DHT22;7379;51.506;11.876;2023-12-22T04:12:55;6.00;75.20
14585;DHT22;7379;51.506;11.876;2023-12-22T04:15:21;6.00;75.00
14585;DHT22;7379;51.506;11.876;2023-12-22T04:17:48;6.00;75.00
14585;DHT22;7379;51.506;11.876;2023-12-22T04:20:15;6.00;74.90
14585;DHT22;7379;51.506;11.876;2023-12-22T04:22:43;6.00;75.00
14585;DHT22;7379;51.506;11.876;2023-12-22T04:25:10;6.00;75.00
14585;DHT22;7379;51.506;11.876;2023-12-22T04:27:37;6.00;74.70
14585;DHT22;7379;51.506;11.876;2023-12-22T04:30:04;6.10;74.70
14585;DHT22;7379;51.506;11.876;2023-12-22T04:32:31;6.00;74.50
14585;DHT22;7379;51.506;11.876;2023-12-22T04:34:58;6.00;74.50
14585;DHT22;7379;51.506;11.876;2023-12-22T04:37:24;6.00;74.70
14585;DHT22;7379;51.506;11.876;2023-12-22T04:39:52;6.00;75.00
14585;DHT22;7379;51.506;11.876;2023-12-22T04:42:19;5.90;75.00
14585;DHT22;7379;51.506;11.876;2023-12-22T04:44:46;5.90;74.70
14585;DHT22;7379;51.506;11.876;2023-12-22T04:47:15;5.90;74.90
14585;DHT22;7379;51.506;11.876;2023-12-22T04:49:42;5.90;75.10
14585;DHT22;7379;51.506;11.876;2023-12-22T04:52:08;5.90;75.30
14585;DHT22;7379;51.506;11.876;2023-12-22T04:54:35;5.80;75.40
14585;DHT22;7379;51.506;11.876;2023-12-22T04:57:03;5.80;75.50
14585;DHT22;7379;51.506;11.876;2023-12-22T04:59:30;5.80;75.60
14585;DHT22;7379;51.506;11.876;2023-12-22T05:01:57;5.90;75.70
14585;DHT22;7379;51.506;11.876;2023-12-22T05:04:24;5.90;75.50
14585;DHT22;7379;51.506;11.876;2023-12-22T05:06:51;5.80;75.30
14585;DHT22;7379;51.506;11.876;2023-12-22T05:09:17;5.80;76.00
14585;DHT22;7379;51.506;11.876;2023-12-22T05:11:44;5.80;75.20
14585;DHT22;7379;51.506;11.876;2023-12-22T05:14:12;5.80;75.30
14585;DHT22;7379;51.506;11.876;2023-12-22T05:16:39;5.80;75.30
14585;DHT22;7379;51.506;11.876;2023-12-22T05:19:06;5.80;75.10
14585;DHT22;7379;51.506;11.876;2023-12-22T05:21:32;5.80;74.90
14585;DHT22;7379;51.506;11.876;2023-12-22T05:23:59;5.80;74.70
14585;DHT22;7379;51.506;11.876;2023-12-22T05:26:26;5.80;74.60
14585;DHT22;7379;51.506;11.876;2023-12-22T05:28:55;5.80;74.60
14585;DHT22;7379;51.506;11.876;2023-12-22T05:31:24;5.80;74.60
14585;DHT22;7379;51.506;11.876;2023-12-22T05:33:51;5.70;74.70
14585;DHT22;7379;51.506;11.876;2023-12-22T05:36:18;5.70;74.90
14585;DHT22;7379;51.506;11.876;2023-12-22T05:38:44;5.70;75.00
14585;DHT22;7379;51.506;11.876;2023-12-22T05:41:13;5.70;75.10
14585;DHT22;7379;51.506;11.876;2023-12-22T05:43:40;5.70;75.30
14585;DHT22;7379;51.506;11.876;2023-12-22T05:46:07;5.70;75.40
14585;DHT22;7379;51.506;11.876;2023-12-22T05:48:36;5.70;75.40
14585;DHT22;7379;51.506;11.876;2023-12-22T05:51:03;5.70;75.40
14585;DHT22;7379;51.506;11.876;2023-12-22T05:53:32;5.70;75.50
14585;DHT22;7379;51.506;11.876;2023-12-22T05:55:59;5.70;75.50
14585;DHT22;7379;51.506;11.876;2023-12-22T05:58:26;5.70;75.50
14585;DHT22;7379;51.506;11.876;2023-12-22T06:00:52;5.70;75.50
14585;DHT22;7379;51.506;11.876;2023-12-22T06:03:19;5.70;75.60
14585;DHT22;7379;51.506;11.876;2023-12-22T06:05:47;5.70;75.60
14585;DHT22;7379;51.506;11.876;2023-12-22T06:08:14;5.70;75.60
14585;DHT22;7379;51.506;11.876;2023-12-22T06:10:41;5.70;75.50
14585;DHT22;7379;51.506;11.876;2023-12-22T06:13:07;5.70;75.50
14585;DHT22;7379;51.506;11.876;2023-12-22T06:15:34;5.70;75.60
14585;DHT22;7379;51.506;11.876;2023-12-22T06:18:01;5.70;75.70
14585;DHT22;7379;51.506;11.876;2023-12-22T06:20:28;5.80;75.80
14585;DHT22;7379;51.506;11.876;2023-12-22T06:22:56;5.80;75.90
14585;DHT22;7379;51.506;11.876;2023-12-22T06:25:22;5.80;76.00
14585;DHT22;7379;51.506;11.876;2023-12-22T06:27:49;5.80;75.70
14585;DHT22;7379;51.506;11.876;2023-12-22T06:30:16;5.80;76.40
14585;DHT22;7379;51.506;11.876;2023-12-22T06:32:43;5.80;75.80
14585;DHT22;7379;51.506;11.876;2023-12-22T06:35:09;5.80;76.60
14585;DHT22;7379;51.506;11.876;2023-12-22T06:37:37;5.70;76.00
14585;DHT22;7379;51.506;11.876;2023-12-22T06:40:06;5.70;76.10
14585;DHT22;7379;51.506;11.876;2023-12-22T06:42:33;5.70;76.20
14585;DHT22;7379;51.506;11.876;2023-12-22T06:45:00;5.70;76.30
14585;DHT22;7379;51.506;11.876;2023-12-22T06:47:26;5.60;76.40
14585;DHT22;7379;51.506;11.876;2023-12-22T06:49:53;5.60;76.50
14585;DHT22;7379;51.506;11.876;2023-12-22T06:52:20;5.60;76.60
14585;DHT22;7379;51.506;11.876;2023-12-22T06:54:47;5.60;76.60
14585;DHT22;7379;51.506;11.876;2023-12-22T06:57:15;5.60;76.40
14585;DHT22;7379;51.506;11.876;2023-12-22T06:59:42;5.60;76.20
14585;DHT22;7379;51.506;11.876;2023-12-22T07:02:09;5.60;76.30
14585;DHT22;7379;51.506;11.876;2023-12-22T07:04:36;5.60;76.50
14585;DHT22;7379;51.506;11.876;2023-12-22T07:07:03;5.60;76.70
14585;DHT22;7379;51.506;11.876;2023-12-22T07:09:30;5.50;76.80
14585;DHT22;7379;51.506;11.876;2023-12-22T07:11:57;5.60;76.90
14585;DHT22;7379;51.506;11.876;2023-12-22T07:14:25;5.60;76.70
14585;DHT22;7379;51.506;11.876;2023-12-22T07:16:52;5.70;76.40
14585;DHT22;7379;51.506;11.876;2023-12-22T07:19:19;5.70;76.20
14585;DHT22;7379;51.506;11.876;2023-12-22T07:21:46;5.60;76.30
14585;DHT22;7379;51.506;11.876;2023-12-22T07:24:13;5.60;76.60
14585;DHT22;7379;51.506;11.876;2023-12-22T07:26:39;5.60;77.40
14585;DHT22;7379;51.506;11.876;2023-12-22T07:29:06;5.60;76.70
14585;DHT22;7379;51.506;11.876;2023-12-22T07:31:34;5.60;76.60
14585;DHT22;7379;51.506;11.876;2023-12-22T07:34:01;5.60;76.60
14585;DHT22;7379;51.506;11.876;2023-12-22T07:36:27;5.60;76.40
14585;DHT22;7379;51.506;11.876;2023-12-22T07:38:54;5.60;76.10
14585;DHT22;7379;51.506;11.876;2023-12-22T07:41:22;5.60;75.90
14585;DHT22;7379;51.506;11.876;2023-12-22T07:43:49;5.60;75.30
14585;DHT22;7379;51.506;11.876;2023-12-22T07:46:20;5.60;74.60
14585;DHT22;7379;51.506;11.876;2023-12-22T07:48:49;5.60;74.00
14585;DHT22;7379;51.506;11.876;2023-12-22T07:51:16;5.60;73.40
14585;DHT22;7379;51.506;11.876;2023-12-22T07:53:42;5.50;73.00
14585;DHT22;7379;51.506;11.876;2023-12-22T07:56:10;5.50;73.60
14585;DHT22;7379;51.506;11.876;2023-12-22T07:58:37;5.40;74.10
14585;DHT22;7379;51.506;11.876;2023-12-22T08:01:04;5.30;74.60
14585;DHT22;7379;51.506;11.876;2023-12-22T08:03:32;5.30;75.10
14585;DHT22;7379;51.506;11.876;2023-12-22T08:06:00;5.40;75.10
14585;DHT22;7379;51.506;11.876;2023-12-22T08:08:27;5.50;75.20
14585;DHT22;7379;51.506;11.876;2023-12-22T08:10:54;5.40;75.20
14585;DHT22;7379;51.506;11.876;2023-12-22T08:13:20;5.50;75.30
14585;DHT22;7379;51.506;11.876;2023-12-22T08:15:47;5.50;75.10
14585;DHT22;7379;51.506;11.876;2023-12-22T08:18:14;5.50;74.70
14585;DHT22;7379;51.506;11.876;2023-12-22T08:20:41;5.50;74.30
14585;DHT22;7379;51.506;11.876;2023-12-22T08:23:09;5.60;73.80
14585;DHT22;7379;51.506;11.876;2023-12-22T08:25:37;5.50;73.20
14585;DHT22;7379;51.506;11.876;2023-12-22T08:28:05;5.50;72.50
14585;DHT22;7379;51.506;11.876;2023-12-22T08:30:32;5.30;72.30
14585;DHT22;7379;51.506;11.876;2023-12-22T08:33:00;5.40;72.60
14585;DHT22;7379;51.506;11.876;2023-12-22T08:35:26;5.40;72.40
14585;DHT22;7379;51.506;11.876;2023-12-22T08:37:53;5.40;72.50
14585;DHT22;7379;51.506;11.876;2023-12-22T08:40:21;5.40;72.60
14585;DHT22;7379;51.506;11.876;2023-12-22T08:42:51;5.40;72.70
14585;DHT22;7379;51.506;11.876;2023-12-22T08:45:20;5.20;73.50
14585;DHT22;7379;51.506;11.876;2023-12-22T08:47:46;5.30;74.40
14585;DHT22;7379;51.506;11.876;2023-12-22T08:50:13;5.30;74.60
14585;DHT22;7379;51.506;11.876;2023-12-22T08:52:40;5.30;74.80
14585;DHT22;7379;51.506;11.876;2023-12-22T08:55:07;5.30;75.10
14585;DHT22;7379;51.506;11.876;2023-12-22T08:57:35;5.20;75.50
14585;DHT22;7379;51.506;11.876;2023-12-22T09:00:02;5.20;75.90
14585;DHT22;7379;51.506;11.876;2023-12-22T09:02:29;5.20;76.30
14585;DHT22;7379;51.506;11.876;2023-12-22T09:04:56;5.20;76.20
14585;DHT22;7379;51.506;11.876;2023-12-22T09:07:23;5.10;76.50
14585;DHT22;7379;51.506;11.876;2023-12-22T09:09:50;5.10;76.70
14585;DHT22;7379;51.506;11.876;2023-12-22T09:12:16;5.10;76.90
14585;DHT22;7379;51.506;11.876;2023-12-22T09:14:44;5.20;76.90
14585;DHT22;7379;51.506;11.876;2023-12-22T09:17:11;5.20;76.70
14585;DHT22;7379;51.506;11.876;2023-12-22T09:19:38;5.20;76.70
14585;DHT22;7379;51.506;11.876;2023-12-22T09:22:05;5.20;76.90
14585;DHT22;7379;51.506;11.876;2023-12-22T09:24:32;5.20;76.90
14585;DHT22;7379;51.506;11.876;2023-12-22T09:26:59;5.10;77.00
14585;DHT22;7379;51.506;11.876;2023-12-22T09:29:28;5.10;77.00
14585;DHT22;7379;51.506;11.876;2023-12-22T09:31:56;5.10;77.20
14585;DHT22;7379;51.506;11.876;2023-12-22T09:34:25;5.10;77.30
14585;DHT22;7379;51.506;11.876;2023-12-22T09:36:52;5.10;77.40
14585;DHT22;7379;51.506;11.876;2023-12-22T09:39:19;5.10;77.40
14585;DHT22;7379;51.506;11.876;2023-12-22T09:41:48;5.10;77.50
14585;DHT22;7379;51.506;11.876;2023-12-22T09:44:18;5.00;77.40
14585;DHT22;7379;51.506;11.876;2023-12-22T09:46:46;5.00;77.60
14585;DHT22;7379;51.506;11.876;2023-12-22T09:49:16;5.00;77.60
14585;DHT22;7379;51.506;11.876;2023-12-22T09:51:44;5.00;77.80
14585;DHT22;7379;51.506;11.876;2023-12-22T09:54:11;5.00;77.80
14585;DHT22;7379;51.506;11.876;2023-12-22T09:56:40;5.00;78.00
14585;DHT22;7379;51.506;11.876;2023-12-22T09:59:10;5.00;78.00
14585;DHT22;7379;51.506;11.876;2023-12-22T10:01:40;5.00;78.00
14585;DHT22;7379;51.506;11.876;2023-12-22T10:04:09;5.00;78.10
14585;DHT22;7379;51.506;11.876;2023-12-22T10:06:37;5.00;78.20
14585;DHT22;7379;51.506;11.876;2023-12-22T10:09:05;5.00;78.30
14585;DHT22;7379;51.506;11.876;2023-12-22T10:11:34;4.90;78.30
14585;DHT22;7379;51.506;11.876;2023-12-22T10:14:02;4.90;78.30
14585;DHT22;7379;51.506;11.876;2023-12-22T10:16:30;4.90;78.40
14585;DHT22;7379;51.506;11.876;2023-12-22T10:18:57;4.90;78.40
14585;DHT22;7379;51.506;11.876;2023-12-22T10:21:24;4.90;78.40
14585;DHT22;7379;51.506;11.876;2023-12-22T10:23:53;4.90;78.40
14585;DHT22;7379;51.506;11.876;2023-12-22T10:26:20;5.00;78.50
14585;DHT22;7379;51.506;11.876;2023-12-22T10:28:47;5.00;78.40
14585;DHT22;7379;51.506;11.876;2023-12-22T10:31:14;5.10;78.40
14585;DHT22;7379;51.506;11.876;2023-12-22T10:33:43;5.10;78.20
14585;DHT22;7379;51.506;11.876;2023-12-22T10:36:10;5.20;77.80
14585;DHT22;7379;51.506;11.876;2023-12-22T10:38:37;5.20;77.20
14585;DHT22;7379;51.506;11.876;2023-12-22T10:41:06;5.20;76.70
14585;DHT22;7379;51.506;11.876;2023-12-22T10:43:37;5.20;76.80
14585;DHT22;7379;51.506;11.876;2023-12-22T10:46:05;5.20;76.90
14585;DHT22;7379;51.506;11.876;2023-12-22T10:48:33;5.20;77.00
14585;DHT22;7379;51.506;11.876;2023-12-22T10:51:00;5.20;77.20
14585;DHT22;7379;51.506;11.876;2023-12-22T10:53:27;5.20;77.30
14585;DHT22;7379;51.506;11.876;2023-12-22T10:55:54;5.20;77.30
14585;DHT22;7379;51.506;11.876;2023-12-22T10:58:22;5.30;77.00
14585;DHT22;7379;51.506;11.876;2023-12-22T11:00:50;5.30;76.90
14585;DHT22;7379;51.506;11.876;2023-12-22T11:03:17;5.30;76.80
14585;DHT22;7379;51.506;11.876;2023-12-22T11:05:46;5.30;76.60
14585;DHT22;7379;51.506;11.876;2023-12-22T11:08:15;5.40;76.50
14585;DHT22;7379;51.506;11.876;2023-12-22T11:10:44;5.40;76.10
14585;DHT22;7379;51.506;11.876;2023-12-22T11:13:14;5.40;75.90
14585;DHT22;7379;51.506;11.876;2023-12-22T11:15:43;5.40;75.70
14585;DHT22;7379;51.506;11.876;2023-12-22T11:18:11;5.40;75.60
14585;DHT22;7379;51.506;11.876;2023-12-22T11:20:39;5.40;75.80
14585;DHT22;7379;51.506;11.876;2023-12-22T11:23:08;5.40;75.90
14585;DHT22;7379;51.506;11.876;2023-12-22T11:25:36;5.40;75.80
14585;DHT22;7379;51.506;11.876;2023-12-22T11:28:05;5.40;76.60
14585;DHT22;7379;51.506;11.876;2023-12-22T11:30:34;5.40;75.90
14585;DHT22;7379;51.506;11.876;2023-12-22T11:33:04;5.40;76.40
14585;DHT22;7379;51.506;11.876;2023-12-22T11:35:31;5.40;75.70
14585;DHT22;7379;51.506;11.876;2023-12-22T11:38:01;5.40;75.70
14585;DHT22;7379;51.506;11.876;2023-12-22T11:40:28;5.40;75.70
14585;DHT22;7379;51.506;11.876;2023-12-22T11:42:56;5.40;75.70
14585;DHT22;7379;51.506;11.876;2023-12-22T11:45:23;5.40;75.50
14585;DHT22;7379;51.506;11.876;2023-12-22T11:47:50;5.50;75.50
14585;DHT22;7379;51.506;11.876;2023-12-22T11:50:29;5.50;75.40
14585;DHT22;7379;51.506;11.876;2023-12-22T11:52:56;5.50;75.50
14585;DHT22;7379;51.506;11.876;2023-12-22T11:55:56;5.50;75.40
14585;DHT22;7379;51.506;11.876;2023-12-22T11:58:36;5.50;75.60
14585;DHT22;7379;51.506;11.876;2023-12-22T12:01:06;5.40;75.70
14585;DHT22;7379;51.506;11.876;2023-12-22T12:03:36;5.40;75.90
14585;DHT22;7379;51.506;11.876;2023-12-22T12:06:14;5.40;76.00
14585;DHT22;7379;51.506;11.876;2023-12-22T12:08:41;5.40;76.10
14585;DHT22;7379;51.506;11.876;2023-12-22T12:11:08;5.40;76.20
14585;DHT22;7379;51.506;11.876;2023-12-22T12:13:41;5.40;76.30
14585;DHT22;7379;51.506;11.876;2023-12-22T12:16:08;5.50;76.50
14585;DHT22;7379;51.506;11.876;2023-12-22T12:18:35;5.40;76.50
14585;DHT22;7379;51.506;11.876;2023-12-22T12:21:02;5.50;76.70
14585;DHT22;7379;51.506;11.876;2023-12-22T12:23:30;5.50;76.90
14585;DHT22;7379;51.506;11.876;2023-12-22T12:25:57;5.50;76.90
14585;DHT22;7379;51.506;11.876;2023-12-22T12:28:29;5.50;77.00
14585;DHT22;7379;51.506;11.876;2023-12-22T12:30:59;5.50;77.10
14585;DHT22;7379;51.506;11.876;2023-12-22T12:33:27;5.50;77.20
14585;DHT22;7379;51.506;11.876;2023-12-22T12:35:55;5.40;77.10
14585;DHT22;7379;51.506;11.876;2023-12-22T12:38:26;5.50;77.40
14585;DHT22;7379;51.506;11.876;2023-12-22T12:40:57;5.50;77.40
14585;DHT22;7379;51.506;11.876;2023-12-22T12:43:24;5.40;77.40
14585;DHT22;7379;51.506;11.876;2023-12-22T12:45:52;5.40;77.50
14585;DHT22;7379;51.506;11.876;2023-12-22T12:48:21;5.40;77.60
14585;DHT22;7379;51.506;11.876;2023-12-22T12:50:48;5.50;77.70
14585;DHT22;7379;51.506;11.876;2023-12-22T12:53:15;5.40;77.70
14585;DHT22;7379;51.506;11.876;2023-12-22T12:55:41;5.40;77.90
14585;DHT22;7379;51.506;11.876;2023-12-22T12:58:10;5.40;78.00
14585;DHT22;7379;51.506;11.876;2023-12-22T13:00:37;5.40;78.10
14585;DHT22;7379;51.506;11.876;2023-12-22T13:03:05;5.40;78.20
14585;DHT22;7379;51.506;11.876;2023-12-22T13:05:32;5.40;79.00
14585;DHT22;7379;51.506;11.876;2023-12-22T13:08:09;5.50;78.50
14585;DHT22;7379;51.506;11.876;2023-12-22T13:10:37;5.50;78.60
14585;DHT22;7379;51.506;11.876;2023-12-22T13:13:04;5.50;78.60
14585;DHT22;7379;51.506;11.876;2023-12-22T13:15:33;5.40;78.60
14585;DHT22;7379;51.506;11.876;2023-12-22T13:17:59;5.40;78.70
14585;DHT22;7379;51.506;11.876;2023-12-22T13:20:27;5.50;78.90
14585;DHT22;7379;51.506;11.876;2023-12-22T13:22:54;5.50;78.90
14585;DHT22;7379;51.506;11.876;2023-12-22T13:25:21;5.50;79.00
14585;DHT22;7379;51.506;11.876;2023-12-22T13:27:50;5.50;79.20
14585;DHT22;7379;51.506;11.876;2023-12-22T13:33:12;5.50;79.20
14585;DHT22;7379;51.506;11.876;2023-12-22T13:35:39;5.50;79.40
14585;DHT22;7379;51.506;11.876;2023-12-22T13:38:06;5.50;79.50
14585;DHT22;7379;51.506;11.876;2023-12-22T13:40:33;5.50;79.50
14585;DHT22;7379;51.506;11.876;2023-12-22T13:43:01;5.50;79.60
14585;DHT22;7379;51.506;11.876;2023-12-22T13:45:28;5.50;79.60
14585;DHT22;7379;51.506;11.876;2023-12-22T13:47:56;5.50;79.60
14585;DHT22;7379;51.506;11.876;2023-12-22T13:50:24;5.50;79.70
14585;DHT22;7379;51.506;11.876;2023-12-22T13:52:51;5.50;79.80
14585;DHT22;7379;51.506;11.876;2023-12-22T13:55:19;5.50;79.80
14585;DHT22;7379;51.506;11.876;2023-12-22T13:57:48;5.50;79.80
14585;DHT22;7379;51.506;11.876;2023-12-22T14:00:28;5.50;79.80
14585;DHT22;7379;51.506;11.876;2023-12-22T14:02:55;5.50;79.90
14585;DHT22;7379;51.506;11.876;2023-12-22T14:05:24;5.50;79.90
14585;DHT22;7379;51.506;11.876;2023-12-22T14:07:51;5.50;79.90
14585;DHT22;7379;51.506;11.876;2023-12-22T14:10:18;5.60;80.00
14585;DHT22;7379;51.506;11.876;2023-12-22T14:12:44;5.50;79.80
14585;DHT22;7379;51.506;11.876;2023-12-22T14:15:11;5.50;79.80
14585;DHT22;7379;51.506;11.876;2023-12-22T14:17:38;5.50;79.90
14585;DHT22;7379;51.506;11.876;2023-12-22T14:20:08;5.50;79.90
14585;DHT22;7379;51.506;11.876;2023-12-22T14:22:36;5.50;79.90
14585;DHT22;7379;51.506;11.876;2023-12-22T14:25:04;5.50;79.90
14585;DHT22;7379;51.506;11.876;2023-12-22T14:27:31;5.50;80.00
14585;DHT22;7379;51.506;11.876;2023-12-22T14:29:57;5.50;80.00
14585;DHT22;7379;51.506;11.876;2023-12-22T14:32:24;5.50;80.00
14585;DHT22;7379;51.506;11.876;2023-12-22T14:34:51;5.50;80.00
14585;DHT22;7379;51.506;11.876;2023-12-22T14:37:17;5.50;80.00
14585;DHT22;7379;51.506;11.876;2023-12-22T14:39:46;5.50;80.00
14585;DHT22;7379;51.506;11.876;2023-12-22T14:42:13;5.60;80.10
14585;DHT22;7379;51.506;11.876;2023-12-22T14:44:40;5.60;80.10
14585;DHT22;7379;51.506;11.876;2023-12-22T14:47:07;5.60;80.20
14585;DHT22;7379;51.506;11.876;2023-12-22T14:49:33;5.60;80.20
14585;DHT22;7379;51.506;11.876;2023-12-22T14:52:00;5.60;80.20
14585;DHT22;7379;51.506;11.876;2023-12-22T14:54:27;5.60;80.30
14585;DHT22;7379;51.506;11.876;2023-12-22T14:56:55;5.60;80.30
14585;DHT22;7379;51.506;11.876;2023-12-22T14:59:22;5.50;80.30
14585;DHT22;7379;51.506;11.876;2023-12-22T15:01:48;5.60;80.40
14585;DHT22;7379;51.506;11.876;2023-12-22T15:04:15;5.60;80.40
14585;DHT22;7379;51.506;11.876;2023-12-22T15:06:42;5.60;80.10
14585;DHT22;7379;51.506;11.876;2023-12-22T15:09:09;5.60;79.80
14585;DHT22;7379;51.506;11.876;2023-12-22T15:11:41;5.60;79.40
14585;DHT22;7379;51.506;11.876;2023-12-22T15:14:09;5.60;78.80
14585;DHT22;7379;51.506;11.876;2023-12-22T15:16:38;5.60;78.40
14585;DHT22;7379;51.506;11.876;2023-12-22T15:19:06;5.60;78.40
14585;DHT22;7379;51.506;11.876;2023-12-22T15:21:33;5.60;78.40
14585;DHT22;7379;51.506;11.876;2023-12-22T15:23:59;5.60;78.40
14585;DHT22;7379;51.506;11.876;2023-12-22T15:26:26;5.60;78.20
14585;DHT22;7379;51.506;11.876;2023-12-22T15:28:53;5.60;78.20
14585;DHT22;7379;51.506;11.876;2023-12-22T15:31:21;5.60;78.00
14585;DHT22;7379;51.506;11.876;2023-12-22T15:33:50;5.60;78.00
14585;DHT22;7379;51.506;11.876;2023-12-22T15:36:17;5.60;78.00
14585;DHT22;7379;51.506;11.876;2023-12-22T15:38:44;5.60;78.10
14585;DHT22;7379;51.506;11.876;2023-12-22T15:41:11;5.60;78.20
14585;DHT22;7379;51.506;11.876;2023-12-22T15:43:38;5.60;78.20
14585;DHT22;7379;51.506;11.876;2023-12-22T15:46:05;5.60;78.30
14585;DHT22;7379;51.506;11.876;2023-12-22T15:48:33;5.60;78.40
14585;DHT22;7379;51.506;11.876;2023-12-22T15:51:05;5.60;78.40